Shadow, Virginia
Current Conditions -  °F | °C
As of 3:54 AM on Friday 31 Oct 2014 (Local Time) from KPHF Reporting Station
Haze Haze  
Wind Chill: 48°   Ceiling: Unl
Heat Index: 48°   Visibility: 6mi
Dew Point: 43°   Wind: 0mph
Humidity: 83%   Direction: NA
Pressure: 29.98"   Gusts: NA
Location:  37.3533°N, 76.3099°W
Report Text: KPHF 310754Z 00000KT 6SM HZ CLR 09/06 A2998 RMK AO2 SLP152 T00890061
Loading
Personal Weather Stations






























Interactive Weather Map
Tropical Storm Tracking
New forecast layout! Learn more

10-Day Weather Forecast

Advertisements
Track Severe Weather on mobile